sensor_id;sensor_type;location;lat;lon;timestamp;temperature;humidity
4429;DHT22;2227;47.810;8.810;2023-04-24T03:47:56;10.50;99.90
4429;DHT22;2227;47.810;8.810;2023-04-24T03:50:23;10.50;99.90
4429;DHT22;2227;47.810;8.810;2023-04-24T03:52:49;10.40;99.90
4429;DHT22;2227;47.810;8.810;2023-04-24T03:55:16;10.20;99.90
4429;DHT22;2227;47.810;8.810;2023-04-24T03:57:43;10.20;99.90
4429;DHT22;2227;47.810;8.810;2023-04-24T04:00:10;10.10;99.90
4429;DHT22;2227;47.810;8.810;2023-04-24T04:02:37;10.20;99.90
4429;DHT22;2227;47.810;8.810;2023-04-24T04:05:04;10.10;99.90
4429;DHT22;2227;47.810;8.810;2023-04-24T04:07:31;10.10;99.90
4429;DHT22;2227;47.810;8.810;2023-04-24T04:09:58;9.80;99.90
4429;DHT22;2227;47.810;8.810;2023-04-24T04:12:24;9.70;99.90
4429;DHT22;2227;47.810;8.810;2023-04-24T04:14:51;9.80;99.90
4429;DHT22;2227;47.810;8.810;2023-04-24T04:17:18;9.70;99.90
4429;DHT22;2227;47.810;8.810;2023-04-24T04:19:45;9.90;99.90
4429;DHT22;2227;47.810;8.810;2023-04-24T04:22:11;10.00;99.90
4429;DHT22;2227;47.810;8.810;2023-04-24T04:24:38;9.90;99.90
4429;DHT22;2227;47.810;8.810;2023-04-24T04:27:07;9.80;99.90
4429;DHT22;2227;47.810;8.810;2023-04-24T04:29:34;9.90;99.90
4429;DHT22;2227;47.810;8.810;2023-04-24T04:32:02;9.80;99.90
4429;DHT22;2227;47.810;8.810;2023-04-24T04:34:29;9.70;99.90
4429;DHT22;2227;47.810;8.810;2023-04-24T04:36:56;9.90;99.90
4429;DHT22;2227;47.810;8.810;2023-04-24T04:39:25;9.80;99.90
4429;DHT22;2227;47.810;8.810;2023-04-24T04:41:54;9.70;99.90
4429;DHT22;2227;47.810;8.810;2023-04-24T04:44:21;9.70;99.90
4429;DHT22;2227;47.810;8.810;2023-04-24T04:46:48;9.60;99.90
4429;DHT22;2227;47.810;8.810;2023-04-24T04:49:14;9.70;99.90
4429;DHT22;2227;47.810;8.810;2023-04-24T04:51:43;9.50;99.90
4429;DHT22;2227;47.810;8.810;2023-04-24T04:54:09;9.60;99.90
4429;DHT22;2227;47.810;8.810;2023-04-24T04:56:36;9.70;99.90
4429;DHT22;2227;47.810;8.810;2023-04-24T04:59:03;9.70;99.90
4429;DHT22;2227;47.810;8.810;2023-04-24T05:01:29;9.70;99.90
4429;DHT22;2227;47.810;8.810;2023-04-24T05:03:56;9.90;99.90
4429;DHT22;2227;47.810;8.810;2023-04-24T05:06:24;9.90;99.90
4429;DHT22;2227;47.810;8.810;2023-04-24T05:08:50;9.90;99.90
4429;DHT22;2227;47.810;8.810;2023-04-24T05:11:17;10.10;99.90
4429;DHT22;2227;47.810;8.810;2023-04-24T05:13:44;10.10;99.90
4429;DHT22;2227;47.810;8.810;2023-04-24T05:16:11;10.00;99.90
4429;DHT22;2227;47.810;8.810;2023-04-24T05:18:37;10.00;99.90
4429;DHT22;2227;47.810;8.810;2023-04-24T05:21:04;10.00;99.90
4429;DHT22;2227;47.810;8.810;2023-04-24T05:23:31;10.10;99.90
4429;DHT22;2227;47.810;8.810;2023-04-24T05:25:58;9.80;99.90
4429;DHT22;2227;47.810;8.810;2023-04-24T05:28:24;10.00;99.90
4429;DHT22;2227;47.810;8.810;2023-04-24T05:30:55;9.90;99.90
4429;DHT22;2227;47.810;8.810;2023-04-24T05:33:22;9.90;99.90
4429;DHT22;2227;47.810;8.810;2023-04-24T05:35:49;9.90;99.90
4429;DHT22;2227;47.810;8.810;2023-04-24T05:38:16;9.90;99.90
4429;DHT22;2227;47.810;8.810;2023-04-24T05:40:46;10.00;99.90
4429;DHT22;2227;47.810;8.810;2023-04-24T05:43:13;10.10;99.90
4429;DHT22;2227;47.810;8.810;2023-04-24T05:45:40;10.00;99.90
4429;DHT22;2227;47.810;8.810;2023-04-24T05:48:06;10.10;99.90
4429;DHT22;2227;47.810;8.810;2023-04-24T05:50:33;10.10;99.90
4429;DHT22;2227;47.810;8.810;2023-04-24T05:53:03;10.00;99.90
4429;DHT22;2227;47.810;8.810;2023-04-24T05:55:31;9.90;99.90
4429;DHT22;2227;47.810;8.810;2023-04-24T05:57:57;10.10;99.90
4429;DHT22;2227;47.810;8.810;2023-04-24T06:00:24;9.90;99.90
4429;DHT22;2227;47.810;8.810;2023-04-24T06:02:51;10.00;99.90
4429;DHT22;2227;47.810;8.810;2023-04-24T06:05:19;10.10;99.90
4429;DHT22;2227;47.810;8.810;2023-04-24T06:07:47;10.20;99.90
4429;DHT22;2227;47.810;8.810;2023-04-24T06:10:14;10.30;99.90
4429;DHT22;2227;47.810;8.810;2023-04-24T06:12:41;10.10;99.90
4429;DHT22;2227;47.810;8.810;2023-04-24T06:15:08;10.10;99.90
4429;DHT22;2227;47.810;8.810;2023-04-24T06:17:35;10.30;99.90
4429;DHT22;2227;47.810;8.810;2023-04-24T06:20:02;10.30;99.90
4429;DHT22;2227;47.810;8.810;2023-04-24T06:22:31;10.30;99.90
4429;DHT22;2227;47.810;8.810;2023-04-24T06:24:59;10.40;99.90
4429;DHT22;2227;47.810;8.810;2023-04-24T06:27:27;10.40;99.90
4429;DHT22;2227;47.810;8.810;2023-04-24T06:29:53;10.30;99.90
4429;DHT22;2227;47.810;8.810;2023-04-24T06:32:22;10.40;99.90
4429;DHT22;2227;47.810;8.810;2023-04-24T06:34:51;10.50;99.90
4429;DHT22;2227;47.810;8.810;2023-04-24T06:37:19;10.80;99.90
4429;DHT22;2227;47.810;8.810;2023-04-24T06:39:46;10.90;99.90
4429;DHT22;2227;47.810;8.810;2023-04-24T06:42:13;10.70;99.90
4429;DHT22;2227;47.810;8.810;2023-04-24T06:44:40;10.70;99.90
4429;DHT22;2227;47.810;8.810;2023-04-24T06:47:11;10.70;99.90
4429;DHT22;2227;47.810;8.810;2023-04-24T06:49:39;10.80;99.90
4429;DHT22;2227;47.810;8.810;2023-04-24T06:52:07;11.00;99.90
4429;DHT22;2227;47.810;8.810;2023-04-24T06:54:33;11.20;99.90
4429;DHT22;2227;47.810;8.810;2023-04-24T06:57:00;11.20;99.90
4429;DHT22;2227;47.810;8.810;2023-04-24T06:59:29;11.40;99.90
4429;DHT22;2227;47.810;8.810;2023-04-24T07:01:56;11.40;99.90
4429;DHT22;2227;47.810;8.810;2023-04-24T07:04:23;11.60;99.90
4429;DHT22;2227;47.810;8.810;2023-04-24T07:06:52;11.60;99.90
4429;DHT22;2227;47.810;8.810;2023-04-24T07:09:22;11.80;99.90
4429;DHT22;2227;47.810;8.810;2023-04-24T07:11:50;11.70;99.90
4429;DHT22;2227;47.810;8.810;2023-04-24T07:14:17;11.90;99.90
4429;DHT22;2227;47.810;8.810;2023-04-24T07:16:44;12.00;99.90
4429;DHT22;2227;47.810;8.810;2023-04-24T07:19:12;11.80;99.90
4429;DHT22;2227;47.810;8.810;2023-04-24T07:21:39;11.90;99.90
4429;DHT22;2227;47.810;8.810;2023-04-24T07:24:06;11.90;99.90
4429;DHT22;2227;47.810;8.810;2023-04-24T07:26:37;12.00;99.90
4429;DHT22;2227;47.810;8.810;2023-04-24T07:29:03;12.30;99.90
4429;DHT22;2227;47.810;8.810;2023-04-24T07:31:30;12.40;99.90
4429;DHT22;2227;47.810;8.810;2023-04-24T07:33:57;12.40;99.90
4429;DHT22;2227;47.810;8.810;2023-04-24T07:36:24;12.50;99.90
4429;DHT22;2227;47.810;8.810;2023-04-24T07:38:52;12.30;99.90
4429;DHT22;2227;47.810;8.810;2023-04-24T07:41:19;12.00;99.90
4429;DHT22;2227;47.810;8.810;2023-04-24T07:43:50;11.80;99.90
4429;DHT22;2227;47.810;8.810;2023-04-24T07:46:17;11.60;99.90
4429;DHT22;2227;47.810;8.810;2023-04-24T07:48:44;11.40;99.90
4429;DHT22;2227;47.810;8.810;2023-04-24T07:51:10;11.30;99.90
4429;DHT22;2227;47.810;8.810;2023-04-24T07:53:39;11.30;99.90
4429;DHT22;2227;47.810;8.810;2023-04-24T07:56:06;10.90;99.90
4429;DHT22;2227;47.810;8.810;2023-04-24T07:58:34;10.80;99.90
4429;DHT22;2227;47.810;8.810;2023-04-24T08:01:00;10.90;99.90
4429;DHT22;2227;47.810;8.810;2023-04-24T08:03:27;11.00;99.90
4429;DHT22;2227;47.810;8.810;2023-04-24T08:05:54;11.20;99.90
4429;DHT22;2227;47.810;8.810;2023-04-24T08:08:22;11.50;99.90
4429;DHT22;2227;47.810;8.810;2023-04-24T08:10:49;11.70;99.90
4429;DHT22;2227;47.810;8.810;2023-04-24T08:13:16;12.00;99.90
4429;DHT22;2227;47.810;8.810;2023-04-24T08:15:43;12.00;99.90
4429;DHT22;2227;47.810;8.810;2023-04-24T08:18:10;12.30;99.90
4429;DHT22;2227;47.810;8.810;2023-04-24T08:20:38;12.80;99.90
4429;DHT22;2227;47.810;8.810;2023-04-24T08:23:05;12.70;99.90
4429;DHT22;2227;47.810;8.810;2023-04-24T08:25:32;12.70;99.90
4429;DHT22;2227;47.810;8.810;2023-04-24T08:27:59;12.90;99.90
4429;DHT22;2227;47.810;8.810;2023-04-24T08:30:25;12.70;99.90
4429;DHT22;2227;47.810;8.810;2023-04-24T08:32:52;13.00;99.90
4429;DHT22;2227;47.810;8.810;2023-04-24T08:35:19;12.60;99.90
4429;DHT22;2227;47.810;8.810;2023-04-24T08:37:46;12.60;99.90
4429;DHT22;2227;47.810;8.810;2023-04-24T08:40:14;12.40;99.90
4429;DHT22;2227;47.810;8.810;2023-04-24T08:42:44;12.60;99.90
4429;DHT22;2227;47.810;8.810;2023-04-24T08:45:12;12.80;99.90
4429;DHT22;2227;47.810;8.810;2023-04-24T08:47:40;13.10;99.90
4429;DHT22;2227;47.810;8.810;2023-04-24T08:50:07;13.20;99.90
4429;DHT22;2227;47.810;8.810;2023-04-24T08:52:35;13.30;99.90
4429;DHT22;2227;47.810;8.810;2023-04-24T08:55:02;13.60;99.90
4429;DHT22;2227;47.810;8.810;2023-04-24T08:57:29;14.60;99.90
4429;DHT22;2227;47.810;8.810;2023-04-24T08:59:58;15.70;99.90
4429;DHT22;2227;47.810;8.810;2023-04-24T09:02:25;15.90;99.20
4429;DHT22;2227;47.810;8.810;2023-04-24T09:04:53;16.50;96.70
4429;DHT22;2227;47.810;8.810;2023-04-24T09:07:22;16.90;95.30
4429;DHT22;2227;47.810;8.810;2023-04-24T09:09:51;16.30;94.30
4429;DHT22;2227;47.810;8.810;2023-04-24T09:12:19;15.70;94.40
4429;DHT22;2227;47.810;8.810;2023-04-24T09:14:45;15.80;95.60
4429;DHT22;2227;47.810;8.810;2023-04-24T09:17:12;16.30;94.00
4429;DHT22;2227;47.810;8.810;2023-04-24T09:19:40;15.90;93.20
4429;DHT22;2227;47.810;8.810;2023-04-24T09:22:07;14.90;93.20
4429;DHT22;2227;47.810;8.810;2023-04-24T09:24:35;14.40;94.20
4429;DHT22;2227;47.810;8.810;2023-04-24T09:27:02;14.00;95.20
4429;DHT22;2227;47.810;8.810;2023-04-24T09:29:29;13.80;96.10
4429;DHT22;2227;47.810;8.810;2023-04-24T09:31:56;13.60;95.40
4429;DHT22;2227;47.810;8.810;2023-04-24T09:34:27;14.50;94.70
4429;DHT22;2227;47.810;8.810;2023-04-24T09:36:54;14.80;94.20
4429;DHT22;2227;47.810;8.810;2023-04-24T09:39:21;16.30;91.90
4429;DHT22;2227;47.810;8.810;2023-04-24T09:41:53;17.60;90.10
4429;DHT22;2227;47.810;8.810;2023-04-24T09:44:22;18.50;85.50
4429;DHT22;2227;47.810;8.810;2023-04-24T09:46:51;19.00;84.20
4429;DHT22;2227;47.810;8.810;2023-04-24T09:49:29;19.20;79.00
4429;DHT22;2227;47.810;8.810;2023-04-24T09:52:04;17.80;76.90
4429;DHT22;2227;47.810;8.810;2023-04-24T09:54:31;16.60;78.60
4429;DHT22;2227;47.810;8.810;2023-04-24T09:56:58;15.60;83.70
4429;DHT22;2227;47.810;8.810;2023-04-24T09:59:26;14.90;84.60
4429;DHT22;2227;47.810;8.810;2023-04-24T10:01:53;15.80;84.10
4429;DHT22;2227;47.810;8.810;2023-04-24T10:04:22;16.40;80.00
4429;DHT22;2227;47.810;8.810;2023-04-24T10:06:52;17.50;80.40
4429;DHT22;2227;47.810;8.810;2023-04-24T10:09:22;18.90;76.30
4429;DHT22;2227;47.810;8.810;2023-04-24T10:11:50;18.30;72.70
4429;DHT22;2227;47.810;8.810;2023-04-24T10:14:19;18.00;71.50
4429;DHT22;2227;47.810;8.810;2023-04-24T10:16:47;18.30;72.00
4429;DHT22;2227;47.810;8.810;2023-04-24T10:19:15;18.10;73.10
4429;DHT22;2227;47.810;8.810;2023-04-24T10:21:44;18.60;71.80
4429;DHT22;2227;47.810;8.810;2023-04-24T10:24:14;18.70;73.50
4429;DHT22;2227;47.810;8.810;2023-04-24T10:26:43;17.70;71.00
4429;DHT22;2227;47.810;8.810;2023-04-24T10:29:14;17.00;72.90
4429;DHT22;2227;47.810;8.810;2023-04-24T10:31:42;16.80;72.90
4429;DHT22;2227;47.810;8.810;2023-04-24T10:34:12;17.70;71.10
4429;DHT22;2227;47.810;8.810;2023-04-24T10:36:45;17.70;70.40
4429;DHT22;2227;47.810;8.810;2023-04-24T10:39:13;18.70;73.20
4429;DHT22;2227;47.810;8.810;2023-04-24T10:41:41;19.00;70.20
4429;DHT22;2227;47.810;8.810;2023-04-24T10:44:13;19.20;67.70
4429;DHT22;2227;47.810;8.810;2023-04-24T10:46:45;19.10;68.00
4429;DHT22;2227;47.810;8.810;2023-04-24T10:49:12;19.30;66.00
4429;DHT22;2227;47.810;8.810;2023-04-24T10:51:47;19.50;66.00
4429;DHT22;2227;47.810;8.810;2023-04-24T10:54:28;18.90;69.70
4429;DHT22;2227;47.810;8.810;2023-04-24T10:59:49;18.10;66.00
4429;DHT22;2227;47.810;8.810;2023-04-24T11:02:17;18.20;66.60
4429;DHT22;2227;47.810;8.810;2023-04-24T11:04:44;18.10;65.30
4429;DHT22;2227;47.810;8.810;2023-04-24T11:07:12;18.00;68.00
4429;DHT22;2227;47.810;8.810;2023-04-24T11:09:39;17.70;67.80
4429;DHT22;2227;47.810;8.810;2023-04-24T11:12:10;17.30;69.50
4429;DHT22;2227;47.810;8.810;2023-04-24T11:20:01;19.40;68.20
4429;DHT22;2227;47.810;8.810;2023-04-24T11:22:44;20.10;67.90
4429;DHT22;2227;47.810;8.810;2023-04-24T11:25:11;20.30;64.40
4429;DHT22;2227;47.810;8.810;2023-04-24T11:27:44;19.80;66.70
4429;DHT22;2227;47.810;8.810;2023-04-24T11:30:18;19.00;65.70
4429;DHT22;2227;47.810;8.810;2023-04-24T11:32:48;18.10;67.80
4429;DHT22;2227;47.810;8.810;2023-04-24T11:35:18;17.80;68.60
4429;DHT22;2227;47.810;8.810;2023-04-24T11:37:48;17.80;68.40
4429;DHT22;2227;47.810;8.810;2023-04-24T11:40:22;17.50;70.60
4429;DHT22;2227;47.810;8.810;2023-04-24T11:42:54;17.40;71.90
4429;DHT22;2227;47.810;8.810;2023-04-24T11:45:27;17.50;71.80
4429;DHT22;2227;47.810;8.810;2023-04-24T11:47:54;17.70;73.30
4429;DHT22;2227;47.810;8.810;2023-04-24T11:50:23;18.70;69.20
4429;DHT22;2227;47.810;8.810;2023-04-24T11:52:52;19.80;66.70
4429;DHT22;2227;47.810;8.810;2023-04-24T11:57:47;21.20;63.40
4429;DHT22;2227;47.810;8.810;2023-04-24T12:00:22;21.10;62.20
4429;DHT22;2227;47.810;8.810;2023-04-24T12:02:49;20.40;64.20
4429;DHT22;2227;47.810;8.810;2023-04-24T12:05:25;19.20;65.00
4429;DHT22;2227;47.810;8.810;2023-04-24T12:07:54;18.60;66.90
4429;DHT22;2227;47.810;8.810;2023-04-24T12:10:24;18.20;68.70
4429;DHT22;2227;47.810;8.810;2023-04-24T12:12:55;18.20;67.30
4429;DHT22;2227;47.810;8.810;2023-04-24T12:15:22;18.20;67.90
4429;DHT22;2227;47.810;8.810;2023-04-24T12:17:51;18.20;68.00
4429;DHT22;2227;47.810;8.810;2023-04-24T12:20:27;17.20;69.00
4429;DHT22;2227;47.810;8.810;2023-04-24T12:22:56;16.70;71.70
4429;DHT22;2227;47.810;8.810;2023-04-24T12:25:25;16.40;72.70
4429;DHT22;2227;47.810;8.810;2023-04-24T12:27:54;16.20;73.70
4429;DHT22;2227;47.810;8.810;2023-04-24T12:30:26;15.90;73.00
4429;DHT22;2227;47.810;8.810;2023-04-24T12:32:53;15.70;73.80
4429;DHT22;2227;47.810;8.810;2023-04-24T12:35:23;15.30;77.00
4429;DHT22;2227;47.810;8.810;2023-04-24T12:37:50;15.80;77.10
4429;DHT22;2227;47.810;8.810;2023-04-24T12:40:18;16.00;75.70
4429;DHT22;2227;47.810;8.810;2023-04-24T12:42:50;16.20;77.50
4429;DHT22;2227;47.810;8.810;2023-04-24T12:45:18;16.10;76.10
4429;DHT22;2227;47.810;8.810;2023-04-24T12:47:46;16.10;76.40
4429;DHT22;2227;47.810;8.810;2023-04-24T12:50:14;16.00;76.60
4429;DHT22;2227;47.810;8.810;2023-04-24T12:52:42;16.30;77.40
4429;DHT22;2227;47.810;8.810;2023-04-24T12:55:11;16.50;76.20
4429;DHT22;2227;47.810;8.810;2023-04-24T12:57:39;16.50;76.10
4429;DHT22;2227;47.810;8.810;2023-04-24T13:00:07;15.80;76.90
4429;DHT22;2227;47.810;8.810;2023-04-24T13:02:34;15.30;79.30
4429;DHT22;2227;47.810;8.810;2023-04-24T13:05:02;15.00;79.10
4429;DHT22;2227;47.810;8.810;2023-04-24T13:07:29;14.90;79.30
4429;DHT22;2227;47.810;8.810;2023-04-24T13:09:56;15.10;80.80
4429;DHT22;2227;47.810;8.810;2023-04-24T13:12:23;15.20;82.70
4429;DHT22;2227;47.810;8.810;2023-04-24T13:14:53;15.60;80.40
4429;DHT22;2227;47.810;8.810;2023-04-24T13:17:22;16.00;77.70
4429;DHT22;2227;47.810;8.810;2023-04-24T13:19:50;15.90;77.70
4429;DHT22;2227;47.810;8.810;2023-04-24T13:22:18;16.20;77.40
4429;DHT22;2227;47.810;8.810;2023-04-24T13:24:48;16.10;75.30
4429;DHT22;2227;47.810;8.810;2023-04-24T13:27:17;15.80;76.40
4429;DHT22;2227;47.810;8.810;2023-04-24T13:29:44;15.70;76.90
4429;DHT22;2227;47.810;8.810;2023-04-24T13:32:11;15.70;74.70
4429;DHT22;2227;47.810;8.810;2023-04-24T13:34:38;15.80;75.00
4429;DHT22;2227;47.810;8.810;2023-04-24T13:37:05;15.80;74.60
4429;DHT22;2227;47.810;8.810;2023-04-24T13:39:32;16.10;76.30
4429;DHT22;2227;47.810;8.810;2023-04-24T13:41:59;16.50;75.10
4429;DHT22;2227;47.810;8.810;2023-04-24T13:44:28;16.80;73.00
4429;DHT22;2227;47.810;8.810;2023-04-24T13:46:55;15.90;72.90
4429;DHT22;2227;47.810;8.810;2023-04-24T13:49:24;15.80;76.40
4429;DHT22;2227;47.810;8.810;2023-04-24T13:51:55;15.70;76.40
4429;DHT22;2227;47.810;8.810;2023-04-24T13:54:22;15.40;76.60
4429;DHT22;2227;47.810;8.810;2023-04-24T13:56:52;15.20;76.30
4429;DHT22;2227;47.810;8.810;2023-04-24T13:59:20;14.90;76.70
4429;DHT22;2227;47.810;8.810;2023-04-24T14:01:47;14.60;77.90
4429;DHT22;2227;47.810;8.810;2023-04-24T14:04:15;14.20;80.30
4429;DHT22;2227;47.810;8.810;2023-04-24T14:06:43;14.30;80.40
4429;DHT22;2227;47.810;8.810;2023-04-24T14:09:09;14.20;81.40
4429;DHT22;2227;47.810;8.810;2023-04-24T14:11:36;14.20;81.30
4429;DHT22;2227;47.810;8.810;2023-04-24T14:14:03;14.20;81.50
4429;DHT22;2227;47.810;8.810;2023-04-24T14:16:30;14.30;82.80
4429;DHT22;2227;47.810;8.810;2023-04-24T14:18:57;14.50;81.90
4429;DHT22;2227;47.810;8.810;2023-04-24T14:21:24;14.60;81.10
4429;DHT22;2227;47.810;8.810;2023-04-24T14:23:51;14.90;82.60
4429;DHT22;2227;47.810;8.810;2023-04-24T14:26:17;15.30;81.90
4429;DHT22;2227;47.810;8.810;2023-04-24T14:28:44;15.50;82.30
4429;DHT22;2227;47.810;8.810;2023-04-24T14:31:11;15.70;80.70
4429;DHT22;2227;47.810;8.810;2023-04-24T14:33:38;15.70;79.80
4429;DHT22;2227;47.810;8.810;2023-04-24T14:36:05;15.30;80.00
4429;DHT22;2227;47.810;8.810;2023-04-24T14:38:32;15.10;81.30
4429;DHT22;2227;47.810;8.810;2023-04-24T14:40:59;15.20;80.50
4429;DHT22;2227;47.810;8.810;2023-04-24T14:43:32;15.30;79.90
4429;DHT22;2227;47.810;8.810;2023-04-24T14:46:02;15.60;81.20
4429;DHT22;2227;47.810;8.810;2023-04-24T14:48:29;15.90;78.80
4429;DHT22;2227;47.810;8.810;2023-04-24T14:50:55;15.90;79.10
4429;DHT22;2227;47.810;8.810;2023-04-24T14:53:22;16.10;78.10
4429;DHT22;2227;47.810;8.810;2023-04-24T14:55:49;16.00;78.70
4429;DHT22;2227;47.810;8.810;2023-04-24T14:58:16;15.60;78.70
4429;DHT22;2227;47.810;8.810;2023-04-24T15:00:43;15.10;81.10
4429;DHT22;2227;47.810;8.810;2023-04-24T15:03:09;15.30;81.90
4429;DHT22;2227;47.810;8.810;2023-04-24T15:05:37;15.40;82.40
4429;DHT22;2227;47.810;8.810;2023-04-24T15:08:04;15.70;80.90
4429;DHT22;2227;47.810;8.810;2023-04-24T15:10:30;16.20;79.60
4429;DHT22;2227;47.810;8.810;2023-04-24T15:12:57;16.20;78.90
4429;DHT22;2227;47.810;8.810;2023-04-24T15:15:24;16.40;78.90
4429;DHT22;2227;47.810;8.810;2023-04-24T15:17:51;16.20;78.30
4429;DHT22;2227;47.810;8.810;2023-04-24T15:20:17;16.00;80.30
4429;DHT22;2227;47.810;8.810;2023-04-24T15:22:44;15.80;79.60
4429;DHT22;2227;47.810;8.810;2023-04-24T15:25:11;15.60;80.10
4429;DHT22;2227;47.810;8.810;2023-04-24T15:27:45;15.60;80.60
4429;DHT22;2227;47.810;8.810;2023-04-24T15:30:13;15.70;81.30
4429;DHT22;2227;47.810;8.810;2023-04-24T15:32:40;15.90;80.80
4429;DHT22;2227;47.810;8.810;2023-04-24T15:35:07;15.80;81.40
4429;DHT22;2227;47.810;8.810;2023-04-24T15:37:36;16.10;81.00
4429;DHT22;2227;47.810;8.810;2023-04-24T15:40:04;16.10;80.50
4429;DHT22;2227;47.810;8.810;2023-04-24T15:42:33;16.10;80.90
4429;DHT22;2227;47.810;8.810;2023-04-24T15:45:00;16.00;80.70
4429;DHT22;2227;47.810;8.810;2023-04-24T15:47:26;15.90;81.50
4429;DHT22;2227;47.810;8.810;2023-04-24T15:49:53;15.70;82.60
4429;DHT22;2227;47.810;8.810;2023-04-24T15:52:20;15.60;81.70
4429;DHT22;2227;47.810;8.810;2023-04-24T15:54:47;15.60;81.60
4429;DHT22;2227;47.810;8.810;2023-04-24T15:57:14;15.30;82.40
4429;DHT22;2227;47.810;8.810;2023-04-24T15:59:41;15.30;84.60
4429;DHT22;2227;47.810;8.810;2023-04-24T16:02:12;15.20;83.00
4429;DHT22;2227;47.810;8.810;2023-04-24T16:04:48;15.20;83.40
4429;DHT22;2227;47.810;8.810;2023-04-24T16:07:16;15.30;83.00
4429;DHT22;2227;47.810;8.810;2023-04-24T16:09:46;15.60;82.50
4429;DHT22;2227;47.810;8.810;2023-04-24T16:12:12;15.90;82.50
4429;DHT22;2227;47.810;8.810;2023-04-24T16:14:40;16.30;80.20
4429;DHT22;2227;47.810;8.810;2023-04-24T16:17:07;16.40;75.10
4429;DHT22;2227;47.810;8.810;2023-04-24T16:19:33;16.10;75.60
4429;DHT22;2227;47.810;8.810;2023-04-24T16:22:01;15.70;76.00
4429;DHT22;2227;47.810;8.810;2023-04-24T16:24:28;15.70;78.10
4429;DHT22;2227;47.810;8.810;2023-04-24T16:26:55;16.10;77.20
4429;DHT22;2227;47.810;8.810;2023-04-24T16:29:22;16.20;79.10
4429;DHT22;2227;47.810;8.810;2023-04-24T16:31:49;16.60;77.40
4429;DHT22;2227;47.810;8.810;2023-04-24T16:34:16;16.80;74.70
4429;DHT22;2227;47.810;8.810;2023-04-24T16:36:42;16.80;75.20
4429;DHT22;2227;47.810;8.810;2023-04-24T16:39:09;16.70;76.50
4429;DHT22;2227;47.810;8.810;2023-04-24T16:41:36;16.60;75.80
4429;DHT22;2227;47.810;8.810;2023-04-24T16:44:03;16.40;77.50
4429;DHT22;2227;47.810;8.810;2023-04-24T16:46:29;16.60;77.20
4429;DHT22;2227;47.810;8.810;2023-04-24T16:48:57;16.20;76.20
4429;DHT22;2227;47.810;8.810;2023-04-24T16:51:23;15.70;76.90
4429;DHT22;2227;47.810;8.810;2023-04-24T16:53:50;15.50;78.20
4429;DHT22;2227;47.810;8.810;2023-04-24T16:56:17;15.50;78.00
4429;DHT22;2227;47.810;8.810;2023-04-24T16:58:44;15.20;78.10
4429;DHT22;2227;47.810;8.810;2023-04-24T17:01:11;15.00;77.50
4429;DHT22;2227;47.810;8.810;2023-04-24T17:03:38;14.80;79.60
4429;DHT22;2227;47.810;8.810;2023-04-24T17:06:05;15.00;79.30
4429;DHT22;2227;47.810;8.810;2023-04-24T17:08:32;15.30;77.70
4429;DHT22;2227;47.810;8.810;2023-04-24T17:10:58;15.30;79.00
4429;DHT22;2227;47.810;8.810;2023-04-24T17:13:25;15.30;77.60
4429;DHT22;2227;47.810;8.810;2023-04-24T17:15:52;15.20;79.10
4429;DHT22;2227;47.810;8.810;2023-04-24T17:18:18;15.10;79.30
4429;DHT22;2227;47.810;8.810;2023-04-24T17:20:45;14.70;78.30
4429;DHT22;2227;47.810;8.810;2023-04-24T17:23:12;14.50;79.20
4429;DHT22;2227;47.810;8.810;2023-04-24T17:25:39;14.50;78.90
4429;DHT22;2227;47.810;8.810;2023-04-24T17:28:20;14.30;79.90
4429;DHT22;2227;47.810;8.810;2023-04-24T17:30:48;14.30;80.40
4429;DHT22;2227;47.810;8.810;2023-04-24T17:33:15;14.30;80.40
4429;DHT22;2227;47.810;8.810;2023-04-24T17:35:41;14.10;80.80
4429;DHT22;2227;47.810;8.810;2023-04-24T17:38:08;14.10;81.60
4429;DHT22;2227;47.810;8.810;2023-04-24T17:40:35;14.10;81.80
4429;DHT22;2227;47.810;8.810;2023-04-24T17:43:03;14.30;82.30
4429;DHT22;2227;47.810;8.810;2023-04-24T17:45:31;14.10;81.60
4429;DHT22;2227;47.810;8.810;2023-04-24T17:47:57;14.20;82.20
4429;DHT22;2227;47.810;8.810;2023-04-24T17:50:24;14.30;81.60
4429;DHT22;2227;47.810;8.810;2023-04-24T17:52:51;14.10;83.00
4429;DHT22;2227;47.810;8.810;2023-04-24T17:55:18;13.90;83.00
4429;DHT22;2227;47.810;8.810;2023-04-24T17:57:44;13.70;82.80
4429;DHT22;2227;47.810;8.810;2023-04-24T18:00:12;13.70;83.60
4429;DHT22;2227;47.810;8.810;2023-04-24T18:02:38;13.70;84.30
4429;DHT22;2227;47.810;8.810;2023-04-24T18:05:05;13.80;84.40
4429;DHT22;2227;47.810;8.810;2023-04-24T18:07:32;13.60;85.00
4429;DHT22;2227;47.810;8.810;2023-04-24T18:09:59;13.60;85.30
4429;DHT22;2227;47.810;8.810;2023-04-24T18:12:26;13.50;85.60
4429;DHT22;2227;47.810;8.810;2023-04-24T18:14:53;13.10;86.60
4429;DHT22;2227;47.810;8.810;2023-04-24T18:17:39;13.00;86.90
4429;DHT22;2227;47.810;8.810;2023-04-24T18:20:06;12.80;87.20
4429;DHT22;2227;47.810;8.810;2023-04-24T18:22:32;12.70;87.40
4429;DHT22;2227;47.810;8.810;2023-04-24T18:24:59;12.50;87.90
4429;DHT22;2227;47.810;8.810;2023-04-24T18:27:27;12.40;87.80
4429;DHT22;2227;47.810;8.810;2023-04-24T18:29:57;12.30;87.80
4429;DHT22;2227;47.810;8.810;2023-04-24T18:32:25;12.20;88.40
4429;DHT22;2227;47.810;8.810;2023-04-24T18:34:52;12.10;88.20
4429;DHT22;2227;47.810;8.810;2023-04-24T18:37:19;12.00;88.90
4429;DHT22;2227;47.810;8.810;2023-04-24T18:39:46;12.00;88.30
4429;DHT22;2227;47.810;8.810;2023-04-24T18:42:12;11.90;89.60
4429;DHT22;2227;47.810;8.810;2023-04-24T18:44:39;11.80;89.20
4429;DHT22;2227;47.810;8.810;2023-04-24T18:47:08;11.80;89.10
4429;DHT22;2227;47.810;8.810;2023-04-24T18:49:35;11.70;89.90
4429;DHT22;2227;47.810;8.810;2023-04-24T18:52:02;11.80;90.00
4429;DHT22;2227;47.810;8.810;2023-04-24T18:54:30;11.70;89.90
4429;DHT22;2227;47.810;8.810;2023-04-24T18:56:57;11.60;90.10
4429;DHT22;2227;47.810;8.810;2023-04-24T18:59:23;11.70;90.20
4429;DHT22;2227;47.810;8.810;2023-04-24T19:01:50;11.60;90.40
4429;DHT22;2227;47.810;8.810;2023-04-24T19:04:17;11.70;90.30
4429;DHT22;2227;47.810;8.810;2023-04-24T19:06:46;11.80;90.30
4429;DHT22;2227;47.810;8.810;2023-04-24T19:09:13;11.80;90.10
4429;DHT22;2227;47.810;8.810;2023-04-24T19:11:39;11.70;90.20
4429;DHT22;2227;47.810;8.810;2023-04-24T19:14:07;11.80;90.30
4429;DHT22;2227;47.810;8.810;2023-04-24T19:16:33;11.80;90.50
4429;DHT22;2227;47.810;8.810;2023-04-24T19:19:00;12.00;90.30
4429;DHT22;2227;47.810;8.810;2023-04-24T19:21:30;12.00;90.10
4429;DHT22;2227;47.810;8.810;2023-04-24T19:23:58;12.10;90.10
4429;DHT22;2227;47.810;8.810;2023-04-24T19:26:25;12.30;89.70
4429;DHT22;2227;47.810;8.810;2023-04-24T19:28:53;12.40;89.20
4429;DHT22;2227;47.810;8.810;2023-04-24T19:31:23;12.40;90.50
4429;DHT22;2227;47.810;8.810;2023-04-24T19:33:50;12.30;90.60
4429;DHT22;2227;47.810;8.810;2023-04-24T19:36:17;12.30;90.20
4429;DHT22;2227;47.810;8.810;2023-04-24T19:38:44;12.40;90.50
4429;DHT22;2227;47.810;8.810;2023-04-24T19:41:11;12.20;90.80
4429;DHT22;2227;47.810;8.810;2023-04-24T19:43:38;12.20;90.80
4429;DHT22;2227;47.810;8.810;2023-04-24T19:46:05;12.10;90.50
4429;DHT22;2227;47.810;8.810;2023-04-24T19:48:32;11.80;90.40
4429;DHT22;2227;47.810;8.810;2023-04-24T19:50:59;11.60;91.10
4429;DHT22;2227;47.810;8.810;2023-04-24T19:53:27;11.50;91.70
4429;DHT22;2227;47.810;8.810;2023-04-24T19:55:54;11.40;91.80
4429;DHT22;2227;47.810;8.810;2023-04-24T19:58:21;11.50;91.90
4429;DHT22;2227;47.810;8.810;2023-04-24T20:00:47;11.30;92.30
4429;DHT22;2227;47.810;8.810;2023-04-24T20:03:14;11.20;92.50